Time;durP1;ratioP1;P1;durP2;ratioP2;P2;SDS_P1;SDS_P2;PMS_P1;PMS_P2;Temp;Humidity;BMP_temperature;BMP_pressure;BME280_temperature;BME280_humidity;BME280_pressure;Samples;Min_cycle;Max_cycle;Signal;HPM_P1;HPM_P2
2022/11/01 00:00:22;;;;;;;27.37;15.80;;;12.70;99.90;;;;;;6207320;28;20473;-63
2022/11/01 00:03:25;;;;;;;16.90;15.10;;;12.60;99.90;;;;;;6202188;28;20480;-63
2022/11/01 00:06:29;;;;;;;24.60;15.73;;;12.70;99.90;;;;;;6201911;28;20481;-63
2022/11/01 00:09:33;;;;;;;19.40;15.20;;;12.70;99.90;;;;;;6202092;28;20477;-61
2022/11/01 00:12:36;;;;;;;18.50;14.43;;;12.70;99.90;;;;;;6201923;28;20510;-63
2022/11/01 00:15:39;;;;;;;18.53;16.63;;;12.70;99.90;;;;;;6201848;28;20801;-63
2022/11/01 00:18:42;;;;;;;19.13;14.33;;;12.70;99.90;;;;;;6201910;28;20476;-63
2022/11/01 00:21:47;;;;;;;18.80;15.07;;;12.70;99.90;;;;;;6201634;28;20989;-63
2022/11/01 00:24:50;;;;;;;18.37;14.87;;;12.70;99.90;;;;;;6201572;28;20484;-63
2022/11/01 00:27:57;;;;;;;17.60;15.20;;;12.80;99.90;;;;;;6201602;28;20473;-63
2022/11/01 00:31:01;;;;;;;17.93;15.57;;;12.70;99.90;;;;;;6201418;28;20534;-63
2022/11/01 00:34:05;;;;;;;26.60;16.43;;;12.50;99.90;;;;;;6201533;28;20483;-63
2022/11/01 00:37:10;;;;;;;18.43;15.07;;;12.50;99.90;;;;;;6201075;28;20484;-63
2022/11/01 00:40:13;;;;;;;32.70;15.60;;;12.50;99.90;;;;;;6205913;28;20472;-63
2022/11/01 00:43:16;;;;;;;18.23;16.37;;;12.50;99.90;;;;;;6211825;28;20477;-63
2022/11/01 00:46:24;;;;;;;29.07;17.60;;;12.50;99.90;;;;;;6201605;28;20488;-63
2022/11/01 00:49:27;;;;;;;28.20;16.33;;;12.50;99.90;;;;;;6218953;28;20488;-63
2022/11/01 00:52:32;;;;;;;29.67;18.50;;;12.50;99.90;;;;;;6207031;28;20472;-63
2022/11/01 00:55:35;;;;;;;33.33;19.13;;;12.40;99.90;;;;;;6211925;28;20484;-63
2022/11/01 00:58:38;;;;;;;30.03;18.17;;;12.50;99.90;;;;;;6209734;28;20550;-63
2022/11/01 01:01:41;;;;;;;38.00;18.30;;;12.40;99.90;;;;;;6218360;28;20846;-63
2022/11/01 01:04:44;;;;;;;36.77;15.50;;;12.20;99.90;;;;;;6213687;28;20473;-63
2022/11/01 01:07:49;;;;;;;30.43;16.20;;;12.10;99.90;;;;;;6217083;28;20476;-63
2022/11/01 01:10:52;;;;;;;18.37;14.73;;;12.20;99.90;;;;;;6200907;28;20477;-59
2022/11/01 01:13:55;;;;;;;53.77;16.90;;;12.10;99.90;;;;;;6200537;28;20477;-62
2022/11/01 01:16:58;;;;;;;22.33;16.90;;;12.10;99.90;;;;;;6200399;28;20575;-63
2022/11/01 01:20:02;;;;;;;35.20;16.37;;;12.10;99.90;;;;;;6205044;28;20484;-63
2022/11/01 01:23:06;;;;;;;46.23;17.83;;;12.10;99.90;;;;;;6205409;28;20547;-62
2022/11/01 01:26:10;;;;;;;37.17;17.80;;;12.10;99.90;;;;;;6205677;28;20539;-61
2022/11/01 01:29:13;;;;;;;28.10;17.07;;;12.10;99.90;;;;;;6205626;28;20487;-61
2022/11/01 01:32:19;;;;;;;22.10;16.40;;;12.00;99.90;;;;;;6207201;28;21006;-61
2022/11/01 01:35:22;;;;;;;17.67;15.80;;;12.00;99.90;;;;;;6206450;28;20476;-63
2022/11/01 01:38:26;;;;;;;21.47;16.60;;;12.10;99.90;;;;;;6204770;28;20499;-64
2022/11/01 01:45:20;;;;;;;30.60;16.80;;;12.00;99.90;;;;;;6204898;28;20488;-60
2022/11/01 01:48:26;;;;;;;57.10;16.80;;;12.00;99.90;;;;;;6204600;28;20551;-60
2022/11/01 01:51:30;;;;;;;19.83;14.47;;;11.90;99.90;;;;;;6204707;28;20951;-59
2022/11/01 01:54:35;;;;;;;31.40;15.30;;;11.80;99.90;;;;;;6204954;28;20468;-63
2022/11/01 01:57:40;;;;;;;16.03;14.10;;;11.70;99.90;;;;;;6204643;28;20519;-64
2022/11/01 02:00:44;;;;;;;24.50;15.40;;;11.70;99.90;;;;;;6196110;28;20472;-64
2022/11/01 02:03:48;;;;;;;52.07;18.90;;;11.80;99.90;;;;;;6204017;28;20488;-61
2022/11/01 02:06:51;;;;;;;30.63;18.10;;;11.80;99.90;;;;;;6204406;28;20480;-64
2022/11/01 02:09:56;;;;;;;22.80;17.30;;;11.90;99.90;;;;;;6204296;28;20465;-60
2022/11/01 02:13:00;;;;;;;73.40;22.43;;;11.90;99.90;;;;;;6204746;28;20498;-64
2022/11/01 02:16:25;;;;;;;23.53;19.10;;;11.70;99.90;;;;;;6204053;28;20480;-61
2022/11/01 02:19:57;;;;;;;57.77;46.60;;;11.70;99.90;;;;;;6204344;28;20473;-63
2022/11/01 02:23:30;;;;;;;22.73;17.90;;;11.80;99.90;;;;;;6204316;28;20476;-61
2022/11/01 02:26:54;;;;;;;38.50;23.93;;;11.90;99.90;;;;;;6204136;28;20461;-64
2022/11/01 02:30:19;;;;;;;17.37;15.57;;;11.90;99.90;;;;;;6204828;28;20444;-59
2022/11/01 02:33:30;;;;;;;21.57;17.33;;;12.00;99.90;;;;;;6203934;28;20559;-59
2022/11/01 02:36:37;;;;;;;20.73;18.53;;;12.00;99.90;;;;;;6203856;28;20791;-59
2022/11/01 02:39:47;;;;;;;18.73;16.77;;;12.10;99.90;;;;;;6203827;28;20512;-59
2022/11/01 02:42:54;;;;;;;17.30;15.67;;;12.20;99.90;;;;;;6204021;28;20481;-59
2022/11/01 02:46:59;;;;;;;16.40;13.97;;;12.10;99.90;;;;;;6203419;28;20990;-60
2022/11/01 02:49:26;;;;;;;14.50;13.00;;;12.00;99.90;;;;;;6203367;28;20473;-59
2022/11/01 02:52:32;;;;;;;34.00;14.27;;;12.00;99.90;;;;;;6203489;28;20477;-59
2022/11/01 02:55:35;;;;;;;18.77;14.57;;;12.10;99.90;;;;;;6203495;28;20923;-59
2022/11/01 02:58:39;;;;;;;19.67;14.97;;;12.00;99.90;;;;;;6203241;28;20841;-59
2022/11/01 03:01:46;;;;;;;18.03;15.70;;;12.00;99.90;;;;;;6203643;28;20472;-59
2022/11/01 03:04:51;;;;;;;37.93;17.37;;;12.10;99.90;;;;;;6198986;28;20485;-59
2022/11/01 03:07:58;;;;;;;17.90;15.97;;;11.80;99.90;;;;;;6203100;28;20492;-60
2022/11/01 03:11:07;;;;;;;19.37;16.30;;;11.90;99.90;;;;;;6203367;28;20600;-59
2022/11/01 03:14:20;;;;;;;17.20;14.90;;;11.90;99.90;;;;;;6203271;28;20971;-59
2022/11/01 03:17:32;;;;;;;18.50;15.57;;;12.00;99.90;;;;;;6202438;28;20481;-60
2022/11/01 03:20:48;;;;;;;17.23;12.03;;;12.00;99.90;;;;;;6202780;28;20522;-59
2022/11/01 03:24:00;;;;;;;16.07;13.43;;;12.10;99.90;;;;;;6202618;28;20519;-60
2022/11/01 03:27:10;;;;;;;16.60;13.10;;;12.10;99.90;;;;;;6202738;28;20473;-60
2022/11/01 03:30:14;;;;;;;19.37;14.13;;;12.10;99.90;;;;;;6202982;28;20465;-60
2022/11/01 03:33:19;;;;;;;21.53;13.80;;;12.10;99.90;;;;;;6202771;28;20596;-60
2022/11/01 03:36:28;;;;;;;20.13;14.63;;;12.00;99.90;;;;;;6202454;28;20535;-58
2022/11/01 03:39:35;;;;;;;17.80;14.57;;;12.00;99.90;;;;;;6202412;28;20469;-59
2022/11/01 03:42:40;;;;;;;18.10;15.10;;;11.90;99.90;;;;;;6202036;28;20661;-59
2022/11/01 03:45:43;;;;;;;22.17;13.10;;;11.80;99.90;;;;;;6201515;28;20766;-59
2022/11/01 03:48:47;;;;;;;19.17;14.20;;;11.90;99.90;;;;;;6202135;28;20993;-59
2022/11/01 03:51:51;;;;;;;16.23;12.57;;;11.90;99.90;;;;;;6202280;28;20480;-59
2022/11/01 03:54:55;;;;;;;15.20;13.70;;;12.00;99.90;;;;;;6201788;28;20799;-59
2022/11/01 03:57:59;;;;;;;13.00;11.60;;;12.00;99.90;;;;;;6202101;28;20488;-59
2022/11/01 04:01:03;;;;;;;27.47;14.60;;;12.10;99.90;;;;;;6201671;28;20508;-59
2022/11/01 04:04:06;;;;;;;16.00;13.63;;;12.00;99.90;;;;;;6202015;28;20903;-59
2022/11/01 04:07:10;;;;;;;17.63;11.90;;;12.00;99.90;;;;;;6196751;28;20973;-59
2022/11/01 04:10:15;;;;;;;25.50;13.40;;;12.00;99.90;;;;;;6201356;28;20477;-59
2022/11/01 04:13:18;;;;;;;34.63;15.70;;;11.90;99.90;;;;;;6201128;28;20479;-59
2022/11/01 04:23:06;;;;;;;16.07;14.37;;;12.00;99.90;;;;;;6201731;28;20473;-59
2022/11/01 04:26:12;;;;;;;18.63;15.50;;;12.10;99.90;;;;;;6201239;28;20489;-59
2022/11/01 04:29:15;;;;;;;14.27;12.87;;;12.00;99.90;;;;;;6201121;28;21005;-59
2022/11/01 04:32:18;;;;;;;15.20;13.60;;;12.10;99.90;;;;;;6201210;28;20472;-59
2022/11/01 04:35:21;;;;;;;26.50;14.13;;;12.10;99.90;;;;;;6201037;28;20498;-58
2022/11/01 04:38:26;;;;;;;26.87;14.23;;;12.20;99.90;;;;;;6200573;28;20496;-58
2022/11/01 04:41:30;;;;;;;13.87;12.43;;;12.20;99.90;;;;;;6201193;28;20870;-58
2022/11/01 04:44:33;;;;;;;25.03;12.67;;;12.20;99.90;;;;;;6200879;28;20489;-59
2022/11/01 04:47:36;;;;;;;15.93;12.93;;;12.20;99.90;;;;;;6200561;28;20830;-58
2022/11/01 04:50:40;;;;;;;23.70;14.10;;;12.10;99.90;;;;;;6201436;28;20445;-58
2022/11/01 04:53:44;;;;;;;30.57;13.07;;;11.90;99.90;;;;;;6199778;28;20962;-58
2022/11/01 04:56:47;;;;;;;16.70;13.23;;;11.50;99.90;;;;;;6201248;28;20464;-60
2022/11/01 04:59:51;;;;;;;25.80;13.40;;;11.30;99.90;;;;;;6200504;28;20782;-59
2022/11/01 05:03:01;;;;;;;24.00;13.10;;;11.50;99.90;;;;;;6200696;28;20805;-60
2022/11/01 05:06:05;;;;;;;17.00;12.87;;;11.50;99.90;;;;;;6200307;28;20482;-60
2022/11/01 05:09:09;;;;;;;16.50;12.60;;;11.50;99.90;;;;;;6196345;28;20853;-59
2022/11/01 05:12:12;;;;;;;23.13;14.30;;;11.70;99.90;;;;;;6200496;28;20530;-59
2022/11/01 05:15:16;;;;;;;17.40;12.50;;;11.60;99.90;;;;;;6200925;28;20476;-60
2022/11/01 05:18:19;;;;;;;14.90;13.40;;;11.70;99.90;;;;;;6200351;28;20477;-59
2022/11/01 05:21:22;;;;;;;18.37;13.90;;;11.80;99.90;;;;;;6200505;28;20490;-59
2022/11/01 05:24:26;;;;;;;17.20;14.80;;;12.00;99.90;;;;;;6200219;28;20484;-59
2022/11/01 05:27:30;;;;;;;17.47;14.80;;;12.10;99.90;;;;;;6199993;28;20488;-59
2022/11/01 05:30:33;;;;;;;16.00;13.67;;;12.20;99.90;;;;;;6200178;28;20476;-59
2022/11/01 05:33:36;;;;;;;16.73;12.43;;;12.30;99.90;;;;;;6200238;28;20473;-59
2022/11/01 05:36:39;;;;;;;19.97;12.43;;;12.30;99.90;;;;;;6199713;28;20480;-59
2022/11/01 05:39:44;;;;;;;18.63;13.00;;;12.20;99.90;;;;;;6199865;28;20798;-59
2022/11/01 05:42:47;;;;;;;14.57;11.80;;;12.20;99.90;;;;;;6199722;28;20531;-59
2022/11/01 05:45:50;;;;;;;13.40;12.00;;;12.20;99.90;;;;;;6199293;28;21013;-59
2022/11/01 05:48:53;;;;;;;17.27;11.93;;;12.20;99.90;;;;;;6200216;28;20473;-60
2022/11/01 05:51:56;;;;;;;17.67;12.67;;;12.10;99.90;;;;;;6199789;28;20483;-60
2022/11/01 05:55:01;;;;;;;12.60;11.40;;;12.10;99.90;;;;;;6200246;28;20469;-60
2022/11/01 05:58:04;;;;;;;11.93;10.57;;;12.00;99.90;;;;;;6199971;28;20539;-60
2022/11/01 06:01:08;;;;;;;13.30;11.00;;;12.00;99.90;;;;;;6199872;28;20817;-60
2022/11/01 06:04:13;;;;;;;11.30;10.10;;;12.10;99.90;;;;;;6201645;28;20529;-63
2022/11/01 06:07:16;;;;;;;12.93;11.63;;;12.10;99.90;;;;;;6204444;28;20488;-62
2022/11/01 06:10:21;;;;;;;14.13;11.17;;;12.10;99.90;;;;;;6207099;28;20994;-61
2022/11/01 06:13:24;;;;;;;14.10;11.37;;;12.00;99.90;;;;;;6205993;28;20773;-61
2022/11/01 06:16:27;;;;;;;17.83;11.10;;;12.00;99.90;;;;;;6204438;28;20974;-59
2022/11/01 06:19:30;;;;;;;13.27;11.80;;;12.00;99.90;;;;;;6204264;28;20538;-63
2022/11/01 06:22:35;;;;;;;11.90;10.60;;;12.10;99.90;;;;;;6204295;28;20477;-63
2022/11/01 06:25:40;;;;;;;15.03;10.87;;;12.10;99.90;;;;;;6204143;28;20508;-60
2022/11/01 06:28:43;;;;;;;19.23;11.33;;;12.20;99.90;;;;;;6204380;28;20493;-60
2022/11/01 06:31:46;;;;;;;13.43;11.70;;;12.20;99.90;;;;;;6207550;28;20476;-60
2022/11/01 06:34:49;;;;;;;17.07;11.20;;;12.30;99.90;;;;;;6205668;28;20546;-60
2022/11/01 06:37:52;;;;;;;12.43;11.17;;;12.30;99.90;;;;;;6204123;28;20485;-63
2022/11/01 06:40:57;;;;;;;14.50;12.20;;;12.30;99.90;;;;;;6204120;28;20477;-63
2022/11/01 06:44:00;;;;;;;13.57;12.37;;;12.40;99.90;;;;;;6204033;28;20476;-59
2022/11/01 06:47:03;;;;;;;11.17;10.17;;;12.50;99.90;;;;;;6203395;28;20492;-59
2022/11/01 06:50:07;;;;;;;12.80;11.43;;;12.50;99.90;;;;;;6203675;28;20491;-63
2022/11/01 06:53:10;;;;;;;12.70;11.50;;;12.60;99.90;;;;;;6203667;28;20477;-63
2022/11/01 06:56:15;;;;;;;14.60;11.23;;;12.80;99.90;;;;;;6203447;28;20553;-64
2022/11/01 06:59:18;;;;;;;16.07;13.90;;;12.80;99.90;;;;;;6203438;28;20535;-63
2022/11/01 07:02:21;;;;;;;14.30;12.20;;;12.90;99.90;;;;;;6203732;28;20483;-63
2022/11/01 07:05:33;;;;;;;13.40;12.07;;;13.10;99.90;;;;;;6203249;28;21025;-63
2022/11/01 07:08:39;;;;;;;13.27;11.93;;;13.40;99.90;;;;;;6203673;28;20800;-64
2022/11/01 07:11:44;;;;;;;12.80;11.50;;;13.50;99.90;;;;;;6203482;28;20445;-64
2022/11/01 07:14:47;;;;;;;12.10;10.90;;;13.80;99.90;;;;;;6203570;28;20457;-64
2022/11/01 07:17:50;;;;;;;14.57;11.30;;;14.00;99.90;;;;;;6202814;28;20958;-63
2022/11/01 07:20:53;;;;;;;20.03;12.60;;;14.00;99.90;;;;;;6203152;28;20475;-59
2022/11/01 07:23:56;;;;;;;14.23;11.70;;;14.10;99.90;;;;;;6202695;28;20931;-59
2022/11/01 07:27:00;;;;;;;14.63;12.20;;;14.20;99.90;;;;;;6203073;28;21006;-59
2022/11/01 07:30:04;;;;;;;12.40;10.60;;;14.40;99.90;;;;;;6202627;28;20832;-59
2022/11/01 07:33:08;;;;;;;13.00;11.70;;;14.60;99.90;;;;;;6203130;28;20480;-60
2022/11/01 07:36:11;;;;;;;11.87;10.77;;;14.80;99.90;;;;;;6202754;28;20475;-60
2022/11/01 07:39:14;;;;;;;14.63;12.00;;;15.10;99.90;;;;;;6202706;28;20496;-60
2022/11/01 07:42:19;;;;;;;15.83;12.30;;;15.30;99.90;;;;;;6203036;28;20487;-64
2022/11/01 07:45:22;;;;;;;12.30;11.10;;;15.50;99.90;;;;;;6202542;28;20493;-65
2022/11/01 07:48:25;;;;;;;14.87;12.00;;;15.40;99.90;;;;;;6202249;28;20477;-60
2022/11/01 07:51:28;;;;;;;13.20;12.00;;;15.20;99.90;;;;;;6202742;28;20469;-60
2022/11/01 07:54:32;;;;;;;11.50;10.40;;;14.90;99.90;;;;;;6205523;28;20886;-60
2022/11/01 07:57:38;;;;;;;13.50;12.20;;;14.70;99.90;;;;;;6226381;28;20472;-64
2022/11/01 08:00:42;;;;;;;12.93;11.60;;;14.60;99.90;;;;;;6226756;28;20471;-60
2022/11/01 08:03:48;;;;;;;12.93;11.70;;;14.50;99.90;;;;;;6226182;28;20472;-60
2022/11/01 08:06:51;;;;;;;13.63;11.77;;;14.30;99.90;;;;;;6226643;28;20473;-61
2022/11/01 08:09:54;;;;;;;15.20;13.43;;;14.40;99.90;;;;;;6226472;28;20506;-61
2022/11/01 08:13:03;;;;;;;18.43;14.37;;;14.40;99.90;;;;;;6227015;28;20483;-61
2022/11/01 08:16:07;;;;;;;15.10;13.40;;;14.50;99.90;;;;;;6227454;28;20469;-62
2022/11/01 08:19:11;;;;;;;16.87;15.10;;;14.60;99.90;;;;;;6221939;28;20483;-62
2022/11/01 08:22:14;;;;;;;16.20;14.53;;;14.70;99.90;;;;;;6226343;28;20479;-60
2022/11/01 08:25:17;;;;;;;16.20;14.60;;;14.60;99.90;;;;;;6226368;28;20756;-61
2022/11/01 08:28:22;;;;;;;15.73;14.13;;;14.90;99.90;;;;;;6226075;28;20949;-60
2022/11/01 08:31:25;;;;;;;16.13;14.37;;;14.80;99.90;;;;;;6226919;28;20487;-59
2022/11/01 08:34:30;;;;;;;17.00;15.37;;;14.90;99.90;;;;;;6221651;28;20480;-62
2022/11/01 08:37:33;;;;;;;15.00;13.50;;;15.30;99.90;;;;;;6213242;28;20530;-62
2022/11/01 08:40:36;;;;;;;16.70;14.90;;;15.70;99.90;;;;;;6212918;28;20483;-63
2022/11/01 08:43:41;;;;;;;16.83;12.77;;;15.90;99.90;;;;;;6214436;28;20535;-60
2022/11/01 08:46:44;;;;;;;16.70;12.07;;;16.20;99.90;;;;;;6207722;28;20496;-59
2022/11/01 08:49:48;;;;;;;15.43;13.80;;;16.50;99.90;;;;;;6212904;28;21091;-62
2022/11/01 08:52:51;;;;;;;14.20;12.67;;;16.80;99.90;;;;;;6217081;28;20546;-63
2022/11/01 08:55:55;;;;;;;13.33;12.00;;;17.30;99.90;;;;;;6208028;28;20479;-61
2022/11/01 08:59:00;;;;;;;13.27;11.93;;;17.90;99.90;;;;;;6213680;28;20474;-63
2022/11/01 09:02:03;;;;;;;14.03;12.67;;;19.10;99.90;;;;;;6204086;28;20306;-64
2022/11/01 09:05:07;;;;;;;13.00;11.80;;;19.50;99.90;;;;;;6213154;28;20221;-64
2022/11/01 09:08:10;;;;;;;14.07;12.77;;;19.90;97.90;;;;;;6211179;28;20225;-64
2022/11/01 09:11:13;;;;;;;16.13;14.73;;;19.30;98.30;;;;;;6205520;28;20283;-63
2022/11/01 09:14:19;;;;;;;16.97;15.37;;;19.10;98.10;;;;;;6220855;28;20605;-64
2022/11/01 09:17:22;;;;;;;14.30;12.80;;;18.80;99.10;;;;;;6221949;28;20629;-63
2022/11/01 09:20:27;;;;;;;14.90;13.17;;;19.00;98.40;;;;;;6224823;28;20247;-61
2022/11/01 09:23:30;;;;;;;14.23;12.73;;;18.60;99.00;;;;;;6220357;28;20244;-59
2022/11/01 09:26:33;;;;;;;12.77;11.47;;;19.00;99.50;;;;;;6224374;28;20643;-61
2022/11/01 09:29:38;;;;;;;12.43;11.33;;;20.00;96.60;;;;;;6218347;28;20214;-63
2022/11/01 09:32:41;;;;;;;11.90;11.00;;;20.70;95.90;;;;;;6215668;28;20654;-60
2022/11/01 09:35:50;;;;;;;11.63;10.53;;;20.80;94.80;;;;;;6224506;28;20542;-60
2022/11/01 09:39:00;;;;;;;12.23;11.23;;;22.30;93.00;;;;;;6203801;28;20236;-63
2022/11/01 09:42:07;;;;;;;10.83;9.93;;;23.60;90.20;;;;;;6206688;28;20586;-64
2022/11/01 09:45:18;;;;;;;11.37;10.33;;;26.20;79.10;;;;;;6223648;28;20235;-65
2022/11/01 09:48:24;;;;;;;12.57;11.50;;;28.30;65.80;;;;;;6229165;28;20228;-65
2022/11/01 09:51:28;;;;;;;10.18;9.40;;;31.20;55.30;;;;;;6229976;28;20228;-66
2022/11/01 09:54:32;;;;;;;11.30;10.35;;;34.50;44.70;;;;;;6229267;28;20280;-63
2022/11/01 09:57:40;;;;;;;10.80;10.00;;;36.40;37.60;;;;;;6229284;28;20243;-62
2022/11/01 10:00:52;;;;;;;10.40;9.50;;;37.80;33.00;;;;;;6213919;28;20236;-63
2022/11/01 10:04:23;;;;;;;10.10;9.20;;;38.70;31.50;;;;;;6222646;28;20231;-65
2022/11/01 10:07:40;;;;;;;10.18;9.48;;;40.60;29.00;;;;;;6228986;28;20255;-61
2022/11/01 10:10:52;;;;;;;9.82;9.23;;;42.00;26.90;;;;;;6229546;28;20224;-61
2022/11/01 10:14:08;;;;;;;10.30;9.60;;;42.40;25.20;;;;;;6231058;28;20250;-61
2022/11/01 10:17:16;;;;;;;8.88;8.13;;;42.80;24.90;;;;;;6229592;28;21007;-60
2022/11/01 10:20:22;;;;;;;10.25;9.45;;;42.90;24.50;;;;;;6229148;28;20235;-63
2022/11/01 10:23:42;;;;;;;10.77;9.88;;;44.10;23.60;;;;;;6229285;28;20286;-64
2022/11/01 10:26:48;;;;;;;9.57;8.85;;;44.60;23.10;;;;;;6228971;28;20230;-61
2022/11/01 10:29:59;;;;;;;11.25;10.35;;;45.80;22.40;;;;;;6228367;28;20627;-63
2022/11/01 10:33:18;;;;;;;10.68;9.60;;;46.00;21.30;;;;;;6228946;28;20577;-61
2022/11/01 10:36:26;;;;;;;9.35;8.57;;;46.60;21.00;;;;;;6228975;28;20225;-61
2022/11/01 10:39:35;;;;;;;8.85;8.25;;;47.10;20.50;;;;;;6228511;28;20393;-63
2022/11/01 10:42:58;;;;;;;9.05;8.35;;;47.00;20.30;;;;;;6228392;28;20242;-64
2022/11/01 10:46:03;;;;;;;10.75;9.82;;;46.70;20.10;;;;;;6231364;28;20317;-64
2022/11/01 10:49:17;;;;;;;10.10;9.32;;;45.90;20.80;;;;;;6229709;28;20241;-63
2022/11/01 10:52:25;;;;;;;9.18;8.57;;;46.20;20.50;;;;;;6226864;28;20235;-63
2022/11/01 10:55:32;;;;;;;9.82;9.00;;;46.00;20.70;;;;;;6227769;28;20231;-64
2022/11/01 10:58:41;;;;;;;9.18;8.48;;;47.00;20.40;;;;;;6227380;28;20308;-64
2022/11/01 11:01:45;;;;;;;9.10;8.50;;;47.50;19.70;;;;;;6227611;28;20228;-65
2022/11/01 11:04:51;;;;;;;9.45;8.57;;;48.20;19.40;;;;;;6227785;28;20290;-65
2022/11/01 11:07:56;;;;;;;8.35;7.85;;;46.70;19.80;;;;;;6226598;28;20657;-65
2022/11/01 11:11:03;;;;;;;8.75;8.15;;;46.80;19.90;;;;;;6227403;28;20724;-60
2022/11/01 11:14:08;;;;;;;9.80;8.98;;;47.20;19.60;;;;;;6215321;28;20229;-60
2022/11/01 11:17:20;;;;;;;8.25;7.65;;;46.70;19.80;;;;;;6204336;28;20237;-61
2022/11/01 11:20:29;;;;;;;9.52;8.75;;;47.30;19.50;;;;;;6214412;28;20216;-61
2022/11/01 11:23:33;;;;;;;9.10;8.43;;;46.90;19.40;;;;;;6215906;28;20216;-61
2022/11/01 11:26:39;;;;;;;9.38;8.68;;;47.20;19.30;;;;;;6226636;28;20231;-62
2022/11/01 11:29:51;;;;;;;9.40;8.70;;;47.50;19.30;;;;;;6217598;28;20223;-60
2022/11/01 11:32:54;;;;;;;9.00;8.40;;;48.30;18.70;;;;;;6220882;28;20201;-61
2022/11/01 11:35:59;;;;;;;8.38;7.88;;;49.00;18.20;;;;;;6217265;28;20596;-64
2022/11/01 11:39:04;;;;;;;8.75;8.05;;;49.50;17.90;;;;;;6210875;28;20625;-65
2022/11/01 11:42:14;;;;;;;9.02;8.30;;;49.70;17.50;;;;;;6202149;28;20540;-62
2022/11/01 11:45:21;;;;;;;9.20;8.25;;;49.40;17.60;;;;;;6204017;28;20231;-66
2022/11/01 11:48:24;;;;;;;7.55;6.88;;;49.50;17.30;;;;;;6215774;28;20219;-61
2022/11/01 11:51:31;;;;;;;9.52;8.73;;;49.90;17.00;;;;;;6213341;28;20228;-64
2022/11/01 11:54:37;;;;;;;8.25;7.72;;;50.10;16.80;;;;;;6222558;28;20227;-66
2022/11/01 11:57:40;;;;;;;7.03;6.60;;;50.10;16.70;;;;;;6226401;28;20234;-65
2022/11/01 12:00:48;;;;;;;6.13;5.63;;;49.80;16.60;;;;;;6225995;28;20232;-61
2022/11/01 12:04:04;;;;;;;7.07;6.47;;;49.40;16.50;;;;;;6212585;28;20289;-64
2022/11/01 12:07:23;;;;;;;6.53;5.93;;;48.70;17.50;;;;;;6201647;28;20240;-65
2022/11/01 12:10:33;;;;;;;6.82;6.22;;;46.70;17.90;;;;;;6201692;28;20228;-60
2022/11/01 12:13:37;;;;;;;6.63;6.13;;;45.50;18.70;;;;;;6204127;28;20236;-60
2022/11/01 12:16:41;;;;;;;6.72;6.05;;;44.60;19.40;;;;;;6207905;28;20694;-64
2022/11/01 12:19:45;;;;;;;5.35;4.95;;;44.30;19.80;;;;;;6202278;28;20217;-63
2022/11/01 12:22:54;;;;;;;5.88;5.38;;;44.40;19.70;;;;;;6201666;28;20237;-60
2022/11/01 12:26:00;;;;;;;8.68;5.75;;;45.20;19.20;;;;;;6201211;28;20263;-60
2022/11/01 12:29:13;;;;;;;6.30;5.78;;;45.70;19.00;;;;;;6203170;28;20236;-62
2022/11/01 12:32:20;;;;;;;6.22;5.65;;;45.50;19.00;;;;;;6225408;28;20234;-63
2022/11/01 12:35:29;;;;;;;6.22;5.75;;;45.80;18.60;;;;;;6210397;28;20231;-60
2022/11/01 12:38:41;;;;;;;6.65;5.72;;;45.70;18.30;;;;;;6200493;28;20289;-62
2022/11/01 12:41:47;;;;;;;6.38;4.57;;;46.10;18.50;;;;;;6213309;28;20525;-63
2022/11/01 12:44:56;;;;;;;4.85;4.45;;;46.30;18.00;;;;;;6225143;28;20518;-64
2022/11/01 12:48:03;;;;;;;4.43;4.05;;;44.80;18.70;;;;;;6220559;28;21122;-65
2022/11/01 12:51:13;;;;;;;5.82;4.50;;;43.80;18.80;;;;;;6219743;28;20581;-61
2022/11/01 12:54:24;;;;;;;5.60;4.03;;;41.60;19.80;;;;;;6203969;28;20260;-63
2022/11/01 12:57:29;;;;;;;10.07;4.50;;;39.60;20.80;;;;;;6215287;28;20249;-65
2022/11/01 13:00:54;;;;;;;5.05;4.55;;;38.00;22.60;;;;;;6215387;28;20224;-67
2022/11/01 13:04:12;;;;;;;4.97;4.50;;;36.30;24.80;;;;;;6211540;28;20234;-65
2022/11/01 13:07:29;;;;;;;5.50;4.30;;;34.50;26.20;;;;;;6211526;28;20284;-62
2022/11/01 13:10:36;;;;;;;11.57;5.00;;;33.00;28.00;;;;;;6206632;28;20221;-63
2022/11/01 13:13:46;;;;;;;6.50;4.80;;;32.00;29.40;;;;;;6225227;28;20259;-64
2022/11/01 13:16:56;;;;;;;11.27;4.85;;;31.80;30.10;;;;;;6229228;28;20677;-66
2022/11/01 13:20:10;;;;;;;5.70;5.20;;;33.10;29.40;;;;;;6200586;28;20233;-61
2022/11/01 13:23:23;;;;;;;4.60;3.97;;;34.40;28.00;;;;;;6200273;28;20244;-65
2022/11/01 13:26:33;;;;;;;7.78;4.18;;;35.10;27.20;;;;;;6200194;28;20695;-66
2022/11/01 13:29:41;;;;;;;8.02;4.90;;;34.90;27.20;;;;;;6206493;28;20228;-62
2022/11/01 13:32:50;;;;;;;5.90;4.03;;;34.50;27.70;;;;;;6224693;28;20229;-61
2022/11/01 13:36:00;;;;;;;9.13;6.50;;;34.20;28.10;;;;;;6214783;28;20540;-61
2022/11/01 13:39:13;;;;;;;6.40;5.15;;;34.30;28.20;;;;;;6200304;28;20226;-62
2022/11/01 13:42:21;;;;;;;5.65;5.15;;;34.40;28.10;;;;;;6200260;28;20240;-62
2022/11/01 13:45:43;;;;;;;8.38;5.15;;;33.70;28.80;;;;;;6200066;28;20682;-62
2022/11/01 13:49:11;;;;;;;7.03;5.38;;;32.50;29.90;;;;;;6200235;28;20240;-65
2022/11/01 13:52:20;;;;;;;5.35;4.22;;;31.40;31.60;;;;;;6200213;28;20246;-63
2022/11/01 13:55:31;;;;;;;5.47;4.97;;;30.50;33.40;;;;;;6200701;28;20250;-63
2022/11/01 13:58:36;;;;;;;7.40;5.20;;;29.70;34.50;;;;;;6200699;28;20229;-62
2022/11/01 14:01:39;;;;;;;6.83;5.57;;;28.90;36.00;;;;;;6201740;28;20287;-64
2022/11/01 14:04:55;;;;;;;6.13;4.70;;;28.30;38.10;;;;;;6221446;28;20732;-64
2022/11/01 14:08:27;;;;;;;5.30;4.90;;;27.00;44.50;;;;;;6226484;28;20663;-63
2022/11/01 14:11:54;;;;;;;5.30;4.83;;;26.00;47.60;;;;;;6190477;28;20263;-59
2022/11/01 14:15:13;;;;;;;4.10;3.80;;;25.10;50.40;;;;;;6221567;28;20241;-60
2022/11/01 14:18:17;;;;;;;4.77;4.37;;;24.20;52.90;;;;;;6224651;28;20646;-60
2022/11/01 14:21:30;;;;;;;6.53;4.73;;;23.70;54.70;;;;;;6225223;28;20243;-60
2022/11/01 14:24:51;;;;;;;5.40;5.00;;;23.20;57.00;;;;;;6223922;28;20240;-60
2022/11/01 14:28:21;;;;;;;5.70;4.63;;;22.60;59.10;;;;;;6228979;28;20322;-64
2022/11/01 14:31:30;;;;;;;7.10;6.30;;;22.10;63.60;;;;;;6228274;28;20224;-66
2022/11/01 14:34:37;;;;;;;8.40;7.70;;;21.90;67.00;;;;;;6228424;28;20239;-66
2022/11/01 14:37:44;;;;;;;6.37;5.83;;;21.40;71.60;;;;;;6212752;28;20225;-65
2022/11/01 14:40:51;;;;;;;5.87;5.37;;;21.10;75.60;;;;;;6203733;28;20304;-61
2022/11/01 14:44:00;;;;;;;6.07;5.47;;;20.90;77.60;;;;;;6194910;28;20238;-62
2022/11/01 14:47:26;;;;;;;5.83;5.43;;;20.70;80.70;;;;;;6203630;28;20643;-64
2022/11/01 14:50:36;;;;;;;5.20;4.60;;;20.50;83.30;;;;;;6203662;28;20234;-63
2022/11/01 14:53:40;;;;;;;6.17;4.97;;;20.40;85.60;;;;;;6203438;28;20536;-61
2022/11/01 14:56:49;;;;;;;6.30;5.70;;;20.20;88.40;;;;;;6202225;28;20228;-61
2022/11/01 14:59:53;;;;;;;5.50;5.10;;;20.10;90.20;;;;;;6202146;28;20186;-62
2022/11/01 15:03:01;;;;;;;5.30;4.83;;;20.00;90.70;;;;;;6206856;28;20232;-61
2022/11/01 15:06:21;;;;;;;5.90;5.30;;;19.80;91.50;;;;;;6226511;28;20233;-61
2022/11/01 15:09:27;;;;;;;5.50;4.93;;;19.60;92.10;;;;;;6227181;28;20248;-62
2022/11/01 15:12:34;;;;;;;5.87;5.33;;;19.40;93.00;;;;;;6220448;28;20235;-62
2022/11/01 15:15:38;;;;;;;5.40;5.00;;;19.20;93.60;;;;;;6205902;28;20285;-61
2022/11/01 15:18:48;;;;;;;6.13;4.93;;;19.20;94.10;;;;;;6233548;23;20240;-64
2022/11/01 15:21:52;;;;;;;6.73;5.50;;;19.10;94.40;;;;;;6227402;28;20235;-62
2022/11/01 15:24:58;;;;;;;4.87;4.47;;;19.00;94.80;;;;;;6229481;28;20319;-61
2022/11/01 15:28:01;;;;;;;5.87;5.37;;;18.90;95.00;;;;;;6227866;28;20244;-61
2022/11/01 15:31:06;;;;;;;6.00;5.43;;;18.80;94.90;;;;;;6227035;28;20243;-64
2022/11/01 15:34:22;;;;;;;5.90;4.90;;;18.60;94.90;;;;;;6226744;28;20225;-65
2022/11/01 15:37:29;;;;;;;7.40;5.33;;;18.60;94.90;;;;;;6225432;28;20259;-64
2022/11/01 15:40:34;;;;;;;5.63;5.03;;;18.50;94.70;;;;;;6220448;28;20232;-62
2022/11/01 15:43:37;;;;;;;5.97;5.47;;;18.40;94.50;;;;;;6226650;28;20237;-62
2022/11/01 15:46:42;;;;;;;9.67;6.50;;;18.40;94.50;;;;;;6222156;28;20236;-62
2022/11/01 15:49:51;;;;;;;6.23;5.73;;;18.30;94.70;;;;;;6216644;28;20333;-63
2022/11/01 15:52:56;;;;;;;8.07;6.13;;;18.20;94.80;;;;;;6201189;28;20683;-62
2022/11/01 15:56:07;;;;;;;6.83;6.27;;;18.10;95.10;;;;;;6200503;28;20291;-62
2022/11/01 15:59:20;;;;;;;5.60;5.17;;;18.00;95.60;;;;;;6201365;28;20821;-63
2022/11/01 16:02:30;;;;;;;7.10;6.40;;;17.90;96.10;;;;;;6201879;28;20236;-63
2022/11/01 16:05:41;;;;;;;11.13;6.67;;;17.70;96.40;;;;;;6218797;28;20679;-63